sensor_id;sensor_type;location;lat;lon;timestamp;P1;durP1;ratioP1;P2;durP2;ratioP2
20739;SDS011;10530;49.968;19.844;2023-05-24T00:04:58;15.30;;;6.13;;
20739;SDS011;10530;49.968;19.844;2023-05-24T00:10:04;15.38;;;6.75;;
20739;SDS011;10530;49.968;19.844;2023-05-24T00:15:07;13.97;;;6.60;;
20739;SDS011;10530;49.968;19.844;2023-05-24T00:20:10;13.98;;;6.38;;
20739;SDS011;10530;49.968;19.844;2023-05-24T00:25:16;12.88;;;6.43;;
20739;SDS011;10530;49.968;19.844;2023-05-24T00:30:19;14.68;;;6.20;;
20739;SDS011;10530;49.968;19.844;2023-05-24T00:35:23;11.75;;;5.97;;
20739;SDS011;10530;49.968;19.844;2023-05-24T00:40:27;14.03;;;6.13;;
20739;SDS011;10530;49.968;19.844;2023-05-24T00:45:30;13.10;;;6.43;;
20739;SDS011;10530;49.968;19.844;2023-05-24T00:50:34;15.57;;;6.40;;
20739;SDS011;10530;49.968;19.844;2023-05-24T00:55:39;11.95;;;6.00;;
20739;SDS011;10530;49.968;19.844;2023-05-24T01:00:42;13.07;;;6.05;;
20739;SDS011;10530;49.968;19.844;2023-05-24T01:05:46;12.53;;;6.30;;
20739;SDS011;10530;49.968;19.844;2023-05-24T01:10:55;12.43;;;6.30;;
20739;SDS011;10530;49.968;19.844;2023-05-24T01:16:07;13.65;;;6.28;;
20739;SDS011;10530;49.968;19.844;2023-05-24T01:21:23;11.15;;;5.70;;
20739;SDS011;10530;49.968;19.844;2023-05-24T01:27:12;13.10;;;5.93;;
20739;SDS011;10530;49.968;19.844;2023-05-24T01:32:16;11.83;;;6.07;;
20739;SDS011;10530;49.968;19.844;2023-05-24T01:37:20;12.90;;;5.95;;
20739;SDS011;10530;49.968;19.844;2023-05-24T01:42:23;12.20;;;6.35;;
20739;SDS011;10530;49.968;19.844;2023-05-24T01:47:36;11.57;;;5.78;;
20739;SDS011;10530;49.968;19.844;2023-05-24T01:53:02;12.30;;;5.85;;
20739;SDS011;10530;49.968;19.844;2023-05-24T01:58:10;15.30;;;6.53;;
20739;SDS011;10530;49.968;19.844;2023-05-24T02:03:17;14.60;;;6.30;;
20739;SDS011;10530;49.968;19.844;2023-05-24T02:08:20;14.15;;;6.68;;
20739;SDS011;10530;49.968;19.844;2023-05-24T02:13:25;16.17;;;7.13;;
20739;SDS011;10530;49.968;19.844;2023-05-24T02:18:28;14.85;;;7.45;;
20739;SDS011;10530;49.968;19.844;2023-05-24T02:23:35;20.27;;;9.23;;
20739;SDS011;10530;49.968;19.844;2023-05-24T02:28:38;17.30;;;8.20;;
20739;SDS011;10530;49.968;19.844;2023-05-24T02:33:41;20.13;;;9.57;;
20739;SDS011;10530;49.968;19.844;2023-05-24T02:38:44;22.85;;;9.25;;
20739;SDS011;10530;49.968;19.844;2023-05-24T02:43:47;29.23;;;11.38;;
20739;SDS011;10530;49.968;19.844;2023-05-24T02:48:50;25.97;;;11.67;;
20739;SDS011;10530;49.968;19.844;2023-05-24T02:53:53;29.13;;;12.65;;
20739;SDS011;10530;49.968;19.844;2023-05-24T02:58:56;30.48;;;12.05;;
20739;SDS011;10530;49.968;19.844;2023-05-24T03:04:00;34.55;;;13.77;;
20739;SDS011;10530;49.968;19.844;2023-05-24T03:09:04;38.08;;;14.93;;
20739;SDS011;10530;49.968;19.844;2023-05-24T03:14:07;35.43;;;14.40;;
20739;SDS011;10530;49.968;19.844;2023-05-24T03:19:14;36.58;;;14.98;;
20739;SDS011;10530;49.968;19.844;2023-05-24T03:24:21;39.50;;;16.20;;
20739;SDS011;10530;49.968;19.844;2023-05-24T03:29:24;38.10;;;15.55;;
20739;SDS011;10530;49.968;19.844;2023-05-24T03:34:28;38.45;;;15.93;;
20739;SDS011;10530;49.968;19.844;2023-05-24T03:39:31;35.50;;;15.33;;
20739;SDS011;10530;49.968;19.844;2023-05-24T03:44:50;38.47;;;15.60;;
20739;SDS011;10530;49.968;19.844;2023-05-24T03:49:53;43.40;;;16.48;;
20739;SDS011;10530;49.968;19.844;2023-05-24T03:54:56;37.78;;;15.93;;
20739;SDS011;10530;49.968;19.844;2023-05-24T04:00:00;38.92;;;16.88;;
20739;SDS011;10530;49.968;19.844;2023-05-24T04:05:04;44.50;;;17.50;;
20739;SDS011;10530;49.968;19.844;2023-05-24T04:10:12;39.25;;;17.73;;
20739;SDS011;10530;49.968;19.844;2023-05-24T04:15:16;37.85;;;16.55;;
20739;SDS011;10530;49.968;19.844;2023-05-24T04:20:19;38.45;;;16.15;;
20739;SDS011;10530;49.968;19.844;2023-05-24T04:25:26;31.42;;;14.68;;
20739;SDS011;10530;49.968;19.844;2023-05-24T04:30:30;35.13;;;15.80;;
20739;SDS011;10530;49.968;19.844;2023-05-24T04:35:34;39.78;;;16.70;;
20739;SDS011;10530;49.968;19.844;2023-05-24T04:40:38;42.53;;;17.58;;
20739;SDS011;10530;49.968;19.844;2023-05-24T04:45:41;44.95;;;18.30;;
20739;SDS011;10530;49.968;19.844;2023-05-24T04:50:44;45.80;;;17.52;;
20739;SDS011;10530;49.968;19.844;2023-05-24T04:55:47;43.60;;;17.63;;
20739;SDS011;10530;49.968;19.844;2023-05-24T05:00:51;44.13;;;16.60;;
20739;SDS011;10530;49.968;19.844;2023-05-24T05:05:54;44.42;;;17.73;;
20739;SDS011;10530;49.968;19.844;2023-05-24T05:10:56;54.33;;;20.08;;
20739;SDS011;10530;49.968;19.844;2023-05-24T05:16:00;44.42;;;17.40;;
20739;SDS011;10530;49.968;19.844;2023-05-24T05:21:04;52.77;;;19.27;;
20739;SDS011;10530;49.968;19.844;2023-05-24T05:26:07;54.33;;;20.10;;
20739;SDS011;10530;49.968;19.844;2023-05-24T05:31:10;55.10;;;21.33;;
20739;SDS011;10530;49.968;19.844;2023-05-24T05:36:13;55.17;;;21.40;;
20739;SDS011;10530;49.968;19.844;2023-05-24T05:41:16;54.85;;;20.52;;
20739;SDS011;10530;49.968;19.844;2023-05-24T05:46:19;45.30;;;19.70;;
20739;SDS011;10530;49.968;19.844;2023-05-24T05:51:23;53.42;;;21.13;;
20739;SDS011;10530;49.968;19.844;2023-05-24T05:56:26;46.33;;;19.40;;
20739;SDS011;10530;49.968;19.844;2023-05-24T06:01:29;52.65;;;19.90;;
20739;SDS011;10530;49.968;19.844;2023-05-24T06:06:32;52.08;;;19.85;;
20739;SDS011;10530;49.968;19.844;2023-05-24T06:11:35;50.50;;;19.30;;
20739;SDS011;10530;49.968;19.844;2023-05-24T06:16:38;50.92;;;20.15;;
20739;SDS011;10530;49.968;19.844;2023-05-24T06:21:44;48.80;;;19.20;;
20739;SDS011;10530;49.968;19.844;2023-05-24T06:26:51;43.03;;;17.77;;
20739;SDS011;10530;49.968;19.844;2023-05-24T06:31:54;39.22;;;17.05;;
20739;SDS011;10530;49.968;19.844;2023-05-24T06:36:57;39.03;;;16.93;;
20739;SDS011;10530;49.968;19.844;2023-05-24T06:42:00;40.10;;;15.98;;
20739;SDS011;10530;49.968;19.844;2023-05-24T06:47:09;44.13;;;17.85;;
20739;SDS011;10530;49.968;19.844;2023-05-24T06:52:13;40.00;;;16.83;;
20739;SDS011;10530;49.968;19.844;2023-05-24T06:57:15;35.72;;;16.25;;
20739;SDS011;10530;49.968;19.844;2023-05-24T07:02:18;52.37;;;20.83;;
20739;SDS011;10530;49.968;19.844;2023-05-24T07:07:27;45.40;;;18.05;;
20739;SDS011;10530;49.968;19.844;2023-05-24T07:12:30;36.45;;;16.55;;
20739;SDS011;10530;49.968;19.844;2023-05-24T07:17:34;34.42;;;14.63;;
20739;SDS011;10530;49.968;19.844;2023-05-24T07:22:37;32.47;;;13.75;;
20739;SDS011;10530;49.968;19.844;2023-05-24T07:27:41;25.77;;;10.97;;
20739;SDS011;10530;49.968;19.844;2023-05-24T07:32:44;33.40;;;13.15;;
20739;SDS011;10530;49.968;19.844;2023-05-24T07:37:48;32.58;;;12.15;;
20739;SDS011;10530;49.968;19.844;2023-05-24T07:42:51;30.10;;;11.27;;
20739;SDS011;10530;49.968;19.844;2023-05-24T07:47:54;33.75;;;11.63;;
20739;SDS011;10530;49.968;19.844;2023-05-24T07:52:57;38.20;;;13.00;;
20739;SDS011;10530;49.968;19.844;2023-05-24T07:58:00;37.08;;;14.30;;
20739;SDS011;10530;49.968;19.844;2023-05-24T08:03:04;51.40;;;23.77;;
20739;SDS011;10530;49.968;19.844;2023-05-24T08:08:08;185.10;;;60.33;;
20739;SDS011;10530;49.968;19.844;2023-05-24T08:13:12;53.55;;;17.10;;
20739;SDS011;10530;49.968;19.844;2023-05-24T08:18:15;30.80;;;11.30;;
20739;SDS011;10530;49.968;19.844;2023-05-24T08:23:18;30.77;;;11.13;;
20739;SDS011;10530;49.968;19.844;2023-05-24T08:28:21;31.80;;;10.07;;
20739;SDS011;10530;49.968;19.844;2023-05-24T08:33:24;23.48;;;9.35;;
20739;SDS011;10530;49.968;19.844;2023-05-24T08:38:27;23.73;;;9.10;;
20739;SDS011;10530;49.968;19.844;2023-05-24T08:43:30;22.43;;;8.03;;
20739;SDS011;10530;49.968;19.844;2023-05-24T08:48:36;25.98;;;9.40;;
20739;SDS011;10530;49.968;19.844;2023-05-24T08:53:48;26.80;;;9.77;;
20739;SDS011;10530;49.968;19.844;2023-05-24T08:58:53;27.05;;;10.20;;
20739;SDS011;10530;49.968;19.844;2023-05-24T09:03:57;31.80;;;11.40;;
20739;SDS011;10530;49.968;19.844;2023-05-24T09:09:02;29.03;;;12.13;;
20739;SDS011;10530;49.968;19.844;2023-05-24T09:14:06;39.47;;;15.20;;
20739;SDS011;10530;49.968;19.844;2023-05-24T09:19:09;29.42;;;10.05;;
20739;SDS011;10530;49.968;19.844;2023-05-24T09:24:12;23.58;;;8.35;;
20739;SDS011;10530;49.968;19.844;2023-05-24T09:29:20;23.63;;;9.23;;
20739;SDS011;10530;49.968;19.844;2023-05-24T09:34:24;18.83;;;7.47;;
20739;SDS011;10530;49.968;19.844;2023-05-24T09:39:28;18.10;;;7.05;;
20739;SDS011;10530;49.968;19.844;2023-05-24T09:44:33;24.55;;;9.25;;
20739;SDS011;10530;49.968;19.844;2023-05-24T09:49:36;28.90;;;10.93;;
20739;SDS011;10530;49.968;19.844;2023-05-24T09:54:39;30.08;;;11.30;;
20739;SDS011;10530;49.968;19.844;2023-05-24T09:59:43;27.57;;;9.40;;
20739;SDS011;10530;49.968;19.844;2023-05-24T10:04:46;22.90;;;7.82;;
20739;SDS011;10530;49.968;19.844;2023-05-24T10:09:49;19.05;;;7.47;;
20739;SDS011;10530;49.968;19.844;2023-05-24T10:14:52;22.20;;;7.25;;
20739;SDS011;10530;49.968;19.844;2023-05-24T10:19:58;18.77;;;7.15;;
20739;SDS011;10530;49.968;19.844;2023-05-24T10:25:01;18.60;;;7.27;;
20739;SDS011;10530;49.968;19.844;2023-05-24T10:35:17;26.02;;;8.70;;
20739;SDS011;10530;49.968;19.844;2023-05-24T10:40:21;21.17;;;8.43;;
20739;SDS011;10530;49.968;19.844;2023-05-24T10:45:28;22.30;;;8.00;;
20739;SDS011;10530;49.968;19.844;2023-05-24T10:50:33;22.13;;;7.93;;
20739;SDS011;10530;49.968;19.844;2023-05-24T11:00:56;21.52;;;8.25;;
20739;SDS011;10530;49.968;19.844;2023-05-24T11:05:59;24.02;;;8.77;;
20739;SDS011;10530;49.968;19.844;2023-05-24T11:11:06;22.63;;;8.57;;
20739;SDS011;10530;49.968;19.844;2023-05-24T11:21:40;23.65;;;7.78;;
20739;SDS011;10530;49.968;19.844;2023-05-24T11:26:45;18.67;;;7.60;;
20739;SDS011;10530;49.968;19.844;2023-05-24T11:31:52;22.42;;;8.60;;
20739;SDS011;10530;49.968;19.844;2023-05-24T11:36:59;25.55;;;9.98;;
20739;SDS011;10530;49.968;19.844;2023-05-24T11:42:03;24.90;;;8.97;;
20739;SDS011;10530;49.968;19.844;2023-05-24T11:47:07;30.33;;;11.07;;
20739;SDS011;10530;49.968;19.844;2023-05-24T11:52:10;27.95;;;9.07;;
20739;SDS011;10530;49.968;19.844;2023-05-24T11:57:13;17.70;;;7.65;;
20739;SDS011;10530;49.968;19.844;2023-05-24T12:02:17;26.05;;;9.90;;
20739;SDS011;10530;49.968;19.844;2023-05-24T12:07:22;25.50;;;8.50;;
20739;SDS011;10530;49.968;19.844;2023-05-24T12:12:25;23.65;;;9.52;;
20739;SDS011;10530;49.968;19.844;2023-05-24T12:17:43;21.42;;;8.73;;
20739;SDS011;10530;49.968;19.844;2023-05-24T12:22:51;22.92;;;7.88;;
20739;SDS011;10530;49.968;19.844;2023-05-24T12:27:55;20.73;;;8.35;;
20739;SDS011;10530;49.968;19.844;2023-05-24T12:32:58;23.43;;;9.17;;
20739;SDS011;10530;49.968;19.844;2023-05-24T12:38:01;25.25;;;8.40;;
20739;SDS011;10530;49.968;19.844;2023-05-24T12:43:05;24.00;;;9.05;;
20739;SDS011;10530;49.968;19.844;2023-05-24T12:48:07;21.73;;;8.35;;
20739;SDS011;10530;49.968;19.844;2023-05-24T12:53:10;21.30;;;8.55;;
20739;SDS011;10530;49.968;19.844;2023-05-24T12:58:14;21.70;;;8.60;;
20739;SDS011;10530;49.968;19.844;2023-05-24T13:03:18;23.70;;;8.75;;
20739;SDS011;10530;49.968;19.844;2023-05-24T13:08:21;25.00;;;9.48;;
20739;SDS011;10530;49.968;19.844;2023-05-24T13:13:24;20.13;;;7.10;;
20739;SDS011;10530;49.968;19.844;2023-05-24T13:18:27;19.88;;;8.23;;
20739;SDS011;10530;49.968;19.844;2023-05-24T13:23:32;20.30;;;8.83;;
20739;SDS011;10530;49.968;19.844;2023-05-24T13:28:36;21.25;;;8.60;;
20739;SDS011;10530;49.968;19.844;2023-05-24T13:33:54;23.30;;;9.25;;
20739;SDS011;10530;49.968;19.844;2023-05-24T13:38:58;24.33;;;9.18;;
20739;SDS011;10530;49.968;19.844;2023-05-24T13:44:04;20.98;;;7.93;;
20739;SDS011;10530;49.968;19.844;2023-05-24T13:49:08;22.93;;;8.20;;
20739;SDS011;10530;49.968;19.844;2023-05-24T13:54:12;21.63;;;8.10;;
20739;SDS011;10530;49.968;19.844;2023-05-24T13:59:15;20.35;;;8.30;;
20739;SDS011;10530;49.968;19.844;2023-05-24T14:04:18;18.23;;;6.82;;
20739;SDS011;10530;49.968;19.844;2023-05-24T14:09:21;17.77;;;7.85;;
20739;SDS011;10530;49.968;19.844;2023-05-24T14:14:24;20.53;;;8.80;;
20739;SDS011;10530;49.968;19.844;2023-05-24T14:19:30;21.30;;;8.52;;
20739;SDS011;10530;49.968;19.844;2023-05-24T14:24:34;18.50;;;8.45;;
20739;SDS011;10530;49.968;19.844;2023-05-24T14:29:37;23.25;;;9.27;;
20739;SDS011;10530;49.968;19.844;2023-05-24T14:34:40;22.92;;;8.95;;
20739;SDS011;10530;49.968;19.844;2023-05-24T14:39:43;20.47;;;8.60;;
20739;SDS011;10530;49.968;19.844;2023-05-24T14:44:46;17.48;;;7.78;;
20739;SDS011;10530;49.968;19.844;2023-05-24T14:49:49;23.30;;;8.25;;
20739;SDS011;10530;49.968;19.844;2023-05-24T14:54:52;21.15;;;8.25;;
20739;SDS011;10530;49.968;19.844;2023-05-24T14:59:55;21.60;;;8.73;;
20739;SDS011;10530;49.968;19.844;2023-05-24T15:04:59;22.70;;;8.73;;
20739;SDS011;10530;49.968;19.844;2023-05-24T15:10:02;24.88;;;9.45;;
20739;SDS011;10530;49.968;19.844;2023-05-24T15:15:05;24.42;;;10.35;;
20739;SDS011;10530;49.968;19.844;2023-05-24T15:20:08;22.85;;;9.27;;
20739;SDS011;10530;49.968;19.844;2023-05-24T15:25:12;22.77;;;9.00;;
20739;SDS011;10530;49.968;19.844;2023-05-24T15:30:17;20.23;;;8.70;;
20739;SDS011;10530;49.968;19.844;2023-05-24T15:35:20;18.08;;;8.32;;
20739;SDS011;10530;49.968;19.844;2023-05-24T15:40:23;18.98;;;8.52;;
20739;SDS011;10530;49.968;19.844;2023-05-24T15:45:26;18.52;;;7.90;;
20739;SDS011;10530;49.968;19.844;2023-05-24T15:50:29;14.98;;;6.90;;
20739;SDS011;10530;49.968;19.844;2023-05-24T15:55:55;18.60;;;8.17;;
20739;SDS011;10530;49.968;19.844;2023-05-24T16:00:58;21.08;;;9.30;;
20739;SDS011;10530;49.968;19.844;2023-05-24T16:06:01;20.35;;;8.05;;
20739;SDS011;10530;49.968;19.844;2023-05-24T16:11:05;22.55;;;8.80;;
20739;SDS011;10530;49.968;19.844;2023-05-24T16:16:09;19.48;;;9.10;;
20739;SDS011;10530;49.968;19.844;2023-05-24T16:21:13;19.40;;;9.00;;
20739;SDS011;10530;49.968;19.844;2023-05-24T16:26:15;18.58;;;8.90;;
20739;SDS011;10530;49.968;19.844;2023-05-24T16:31:18;18.85;;;8.98;;
20739;SDS011;10530;49.968;19.844;2023-05-24T16:36:22;22.60;;;9.13;;
20739;SDS011;10530;49.968;19.844;2023-05-24T16:41:25;21.50;;;8.52;;
20739;SDS011;10530;49.968;19.844;2023-05-24T16:46:35;23.00;;;8.93;;
20739;SDS011;10530;49.968;19.844;2023-05-24T16:51:39;18.83;;;8.40;;
20739;SDS011;10530;49.968;19.844;2023-05-24T16:56:42;19.83;;;8.25;;
20739;SDS011;10530;49.968;19.844;2023-05-24T17:01:46;20.52;;;7.95;;
20739;SDS011;10530;49.968;19.844;2023-05-24T17:06:51;18.20;;;7.65;;
20739;SDS011;10530;49.968;19.844;2023-05-24T17:11:54;19.47;;;9.13;;
20739;SDS011;10530;49.968;19.844;2023-05-24T17:16:57;26.58;;;10.32;;
20739;SDS011;10530;49.968;19.844;2023-05-24T17:22:00;19.88;;;8.70;;
20739;SDS011;10530;49.968;19.844;2023-05-24T17:27:03;21.10;;;8.43;;
20739;SDS011;10530;49.968;19.844;2023-05-24T17:32:06;24.25;;;9.55;;
20739;SDS011;10530;49.968;19.844;2023-05-24T17:37:09;20.70;;;8.43;;
20739;SDS011;10530;49.968;19.844;2023-05-24T17:42:12;20.10;;;8.57;;
20739;SDS011;10530;49.968;19.844;2023-05-24T17:47:15;21.73;;;9.25;;
20739;SDS011;10530;49.968;19.844;2023-05-24T17:52:18;20.83;;;9.07;;
20739;SDS011;10530;49.968;19.844;2023-05-24T17:57:21;21.63;;;8.63;;
20739;SDS011;10530;49.968;19.844;2023-05-24T18:02:24;17.67;;;7.10;;
20739;SDS011;10530;49.968;19.844;2023-05-24T18:07:27;16.85;;;7.30;;
20739;SDS011;10530;49.968;19.844;2023-05-24T18:12:31;22.45;;;7.80;;
20739;SDS011;10530;49.968;19.844;2023-05-24T18:17:34;21.88;;;8.45;;
20739;SDS011;10530;49.968;19.844;2023-05-24T18:22:37;20.92;;;8.10;;
20739;SDS011;10530;49.968;19.844;2023-05-24T18:27:42;15.67;;;6.63;;
20739;SDS011;10530;49.968;19.844;2023-05-24T18:32:45;15.85;;;7.43;;
20739;SDS011;10530;49.968;19.844;2023-05-24T18:38:05;19.02;;;8.00;;
20739;SDS011;10530;49.968;19.844;2023-05-24T18:43:08;19.52;;;7.90;;
20739;SDS011;10530;49.968;19.844;2023-05-24T18:48:11;16.45;;;8.00;;
20739;SDS011;10530;49.968;19.844;2023-05-24T18:53:14;20.87;;;8.97;;
20739;SDS011;10530;49.968;19.844;2023-05-24T18:58:17;18.70;;;8.63;;
20739;SDS011;10530;49.968;19.844;2023-05-24T19:03:19;22.33;;;8.77;;
20739;SDS011;10530;49.968;19.844;2023-05-24T19:08:23;20.42;;;8.40;;
20739;SDS011;10530;49.968;19.844;2023-05-24T19:13:26;19.17;;;8.02;;
20739;SDS011;10530;49.968;19.844;2023-05-24T19:18:29;19.60;;;8.23;;
20739;SDS011;10530;49.968;19.844;2023-05-24T19:23:32;21.52;;;8.60;;
20739;SDS011;10530;49.968;19.844;2023-05-24T19:28:35;21.67;;;8.43;;
20739;SDS011;10530;49.968;19.844;2023-05-24T19:33:41;19.58;;;8.40;;
20739;SDS011;10530;49.968;19.844;2023-05-24T19:39:00;20.63;;;8.63;;
20739;SDS011;10530;49.968;19.844;2023-05-24T19:44:03;20.63;;;7.97;;
20739;SDS011;10530;49.968;19.844;2023-05-24T19:49:06;26.63;;;9.63;;
20739;SDS011;10530;49.968;19.844;2023-05-24T19:54:09;23.48;;;9.20;;
20739;SDS011;10530;49.968;19.844;2023-05-24T19:59:13;22.45;;;9.75;;
20739;SDS011;10530;49.968;19.844;2023-05-24T20:04:16;22.63;;;8.93;;
20739;SDS011;10530;49.968;19.844;2023-05-24T20:09:20;22.13;;;9.10;;
20739;SDS011;10530;49.968;19.844;2023-05-24T20:14:22;22.60;;;9.82;;
20739;SDS011;10530;49.968;19.844;2023-05-24T20:19:26;23.83;;;9.60;;
20739;SDS011;10530;49.968;19.844;2023-05-24T20:24:29;23.05;;;9.68;;
20739;SDS011;10530;49.968;19.844;2023-05-24T20:29:32;28.83;;;9.15;;
20739;SDS011;10530;49.968;19.844;2023-05-24T20:34:35;24.20;;;9.23;;
20739;SDS011;10530;49.968;19.844;2023-05-24T20:39:38;22.73;;;8.52;;
20739;SDS011;10530;49.968;19.844;2023-05-24T20:44:41;21.92;;;8.85;;
20739;SDS011;10530;49.968;19.844;2023-05-24T20:49:44;17.63;;;7.60;;
20739;SDS011;10530;49.968;19.844;2023-05-24T20:54:47;25.27;;;9.80;;
20739;SDS011;10530;49.968;19.844;2023-05-24T20:59:50;23.60;;;9.73;;
20739;SDS011;10530;49.968;19.844;2023-05-24T21:04:53;25.17;;;9.38;;
20739;SDS011;10530;49.968;19.844;2023-05-24T21:09:57;26.73;;;9.98;;
20739;SDS011;10530;49.968;19.844;2023-05-24T21:15:00;23.73;;;9.63;;
20739;SDS011;10530;49.968;19.844;2023-05-24T21:20:03;17.75;;;8.13;;
20739;SDS011;10530;49.968;19.844;2023-05-24T21:25:06;22.20;;;8.50;;
20739;SDS011;10530;49.968;19.844;2023-05-24T21:30:10;19.73;;;8.73;;
20739;SDS011;10530;49.968;19.844;2023-05-24T21:35:14;21.77;;;8.93;;
20739;SDS011;10530;49.968;19.844;2023-05-24T21:40:17;20.80;;;8.25;;
20739;SDS011;10530;49.968;19.844;2023-05-24T21:45:19;16.75;;;7.65;;
20739;SDS011;10530;49.968;19.844;2023-05-24T21:50:22;28.80;;;9.37;;
20739;SDS011;10530;49.968;19.844;2023-05-24T21:55:26;23.77;;;9.60;;
20739;SDS011;10530;49.968;19.844;2023-05-24T22:00:29;27.20;;;9.27;;
20739;SDS011;10530;49.968;19.844;2023-05-24T22:05:32;24.33;;;8.98;;
20739;SDS011;10530;49.968;19.844;2023-05-24T22:10:35;29.45;;;10.68;;
20739;SDS011;10530;49.968;19.844;2023-05-24T22:15:38;29.47;;;10.17;;
20739;SDS011;10530;49.968;19.844;2023-05-24T22:20:42;26.83;;;9.45;;
20739;SDS011;10530;49.968;19.844;2023-05-24T22:25:48;26.60;;;9.48;;
20739;SDS011;10530;49.968;19.844;2023-05-24T22:30:51;26.65;;;9.45;;
20739;SDS011;10530;49.968;19.844;2023-05-24T22:35:54;26.45;;;9.90;;
20739;SDS011;10530;49.968;19.844;2023-05-24T22:40:57;27.60;;;9.53;;
20739;SDS011;10530;49.968;19.844;2023-05-24T22:46:00;26.17;;;10.20;;
20739;SDS011;10530;49.968;19.844;2023-05-24T22:51:03;29.58;;;9.27;;
20739;SDS011;10530;49.968;19.844;2023-05-24T22:56:06;28.27;;;9.88;;
20739;SDS011;10530;49.968;19.844;2023-05-24T23:01:11;29.20;;;9.73;;
20739;SDS011;10530;49.968;19.844;2023-05-24T23:06:14;26.47;;;9.33;;
20739;SDS011;10530;49.968;19.844;2023-05-24T23:11:18;29.63;;;9.60;;
20739;SDS011;10530;49.968;19.844;2023-05-24T23:16:21;29.45;;;9.38;;
20739;SDS011;10530;49.968;19.844;2023-05-24T23:21:24;27.73;;;9.15;;
20739;SDS011;10530;49.968;19.844;2023-05-24T23:26:27;27.45;;;10.32;;
20739;SDS011;10530;49.968;19.844;2023-05-24T23:31:30;24.43;;;9.07;;
20739;SDS011;10530;49.968;19.844;2023-05-24T23:36:33;22.35;;;8.82;;
20739;SDS011;10530;49.968;19.844;2023-05-24T23:41:37;21.67;;;8.23;;
20739;SDS011;10530;49.968;19.844;2023-05-24T23:46:40;23.00;;;8.88;;
20739;SDS011;10530;49.968;19.844;2023-05-24T23:51:43;24.10;;;8.77;;
20739;SDS011;10530;49.968;19.844;2023-05-24T23:56:46;19.17;;;7.37;;
